Página principal
METAR-TAF:

METAR-TAF

Aeroportos :

Scammon Bay, Alasca, Estados Unidos

latitude: 61-50-43N, longitude: 165-34-17W, altura: 4 m

Observação actual do tempo

O boletim foi feito há 58 minutos, às 22:56 UTC
Vento 4 kt de norte
Temperatura 23°C
Humidade 50%
Pressão 1019 hPa
Visibilidade: 16.1 km
Céu limpo

METAR: PACM 222256Z AUTO 36004KT 10SM CLR 23/12 A3009 RMK AO2 SLP188 T02280122

Hora: 15:54 (23:54 UTC)


TAF: em falta

Observações e previsões do tempo de mais de 4000 aeroportos (mensagens METAR e TAF).

As estações disponíveis são os pontos amarelos e vermelhos sobre o mapa.

Mova o rato sobre o mapa para ver o nome da estação.

Depois clique no ponto para visualizar as observações e previsões meteorológicas.

Para alterar o mapa : clique nos botões verdes com uma cruz preta para aumentar o zoom; no botão verde com uma pitada de zoom; ou nas setas verdes para mapas adjacentes.


METAR-TAF: